createdAt,value
2018-03-07T00:01:08.925Z,91.88
2018-03-07T00:03:34.778Z,91.91
2018-03-07T00:06:00.678Z,91.92
2018-03-07T00:08:26.524Z,91.92
2018-03-07T00:10:52.365Z,91.93
2018-03-07T00:13:18.281Z,91.95
2018-03-07T00:15:44.133Z,91.98
2018-03-07T00:18:09.994Z,91.98
2018-03-07T00:20:35.968Z,91.94
2018-03-07T00:23:01.809Z,91.91
2018-03-07T00:25:27.714Z,91.94
2018-03-07T00:27:53.609Z,91.95
2018-03-07T00:30:19.461Z,91.97
2018-03-07T00:32:45.305Z,91.98
2018-03-07T00:35:11.202Z,91.98
2018-03-07T00:37:37.045Z,91.98
2018-03-07T00:40:02.902Z,92.00
2018-03-07T00:42:28.784Z,92.03
2018-03-07T00:44:54.637Z,92.05
2018-03-07T00:47:20.582Z,92.06
2018-03-07T00:49:46.473Z,92.08
2018-03-07T00:52:12.334Z,92.09
2018-03-07T00:54:38.201Z,92.10
2018-03-07T00:57:04.102Z,92.11
2018-03-07T00:59:29.952Z,92.12
2018-03-07T01:01:55.867Z,92.10
2018-03-07T01:04:21.778Z,92.11
2018-03-07T01:06:47.625Z,92.10
2018-03-07T01:09:13.469Z,92.08
2018-03-07T01:11:39.364Z,92.08
2018-03-07T01:14:05.215Z,92.09
2018-03-07T01:16:31.067Z,92.09
2018-03-07T01:18:56.965Z,92.11
2018-03-07T01:21:22.814Z,92.13
2018-03-07T01:23:48.665Z,92.15
2018-03-07T01:26:14.638Z,92.16
2018-03-07T01:28:40.489Z,92.18
2018-03-07T01:31:06.338Z,92.20
2018-03-07T01:33:32.313Z,92.21
2018-03-07T01:35:58.158Z,92.22
2018-03-07T01:38:24.001Z,92.22
2018-03-07T01:40:49.912Z,92.22
2018-03-07T01:43:15.765Z,92.24
2018-03-07T01:45:41.630Z,92.26
2018-03-07T01:48:07.522Z,92.28
2018-03-07T01:50:33.395Z,92.29
2018-03-07T01:52:59.253Z,92.29
2018-03-07T01:55:25.153Z,92.27
2018-03-07T01:57:51.002Z,92.28
2018-03-07T02:00:16.860Z,92.29
2018-03-07T02:02:42.876Z,92.28
2018-03-07T02:05:08.750Z,92.30
2018-03-07T02:07:34.593Z,92.30
2018-03-07T02:10:00.481Z,92.30
2018-03-07T02:12:26.344Z,92.29
2018-03-07T02:14:52.190Z,92.28
2018-03-07T02:17:18.081Z,92.25
2018-03-07T02:19:43.938Z,92.27
2018-03-07T02:22:09.850Z,92.28
2018-03-07T02:24:35.729Z,92.27
2018-03-07T02:27:01.582Z,92.27
2018-03-07T02:29:27.445Z,92.27
2018-03-07T02:31:53.329Z,92.32
2018-03-07T02:34:19.191Z,92.33
2018-03-07T02:36:45.037Z,92.35
2018-03-07T02:39:10.916Z,92.31
2018-03-07T02:41:36.774Z,92.30
2018-03-07T02:44:02.655Z,92.29
2018-03-07T02:46:28.554Z,92.29
2018-03-07T02:48:54.401Z,92.32
2018-03-07T02:51:20.274Z,92.33
2018-03-07T02:53:46.172Z,92.23
2018-03-07T02:56:12.030Z,92.24
2018-03-07T02:58:37.886Z,92.25
2018-03-07T03:01:03.770Z,92.29
2018-03-07T03:03:29.667Z,92.30
2018-03-07T03:05:55.518Z,92.31
2018-03-07T03:08:21.398Z,92.33
2018-03-07T03:10:47.309Z,92.34
2018-03-07T03:13:13.145Z,92.37
2018-03-07T03:15:39.043Z,92.34
2018-03-07T03:18:04.894Z,92.11
2018-03-07T03:20:30.738Z,91.97
2018-03-07T03:22:56.609Z,91.99
2018-03-07T03:25:22.466Z,92.04
2018-03-07T03:27:48.308Z,92.11
2018-03-07T03:30:14.195Z,92.05
2018-03-07T03:32:40.109Z,91.97
2018-03-07T03:35:05.949Z,91.96
2018-03-07T03:37:31.850Z,91.97
2018-03-07T03:39:57.695Z,92.03
2018-03-07T03:42:23.575Z,92.06
2018-03-07T03:44:49.460Z,92.11
2018-03-07T03:47:15.312Z,92.12
2018-03-07T03:49:41.144Z,92.13
2018-03-07T03:52:07.044Z,92.10
2018-03-07T03:54:32.998Z,92.14
2018-03-07T03:56:58.836Z,92.18
2018-03-07T03:59:24.753Z,92.06
2018-03-07T04:01:50.588Z,92.03
2018-03-07T04:04:16.425Z,92.00
2018-03-07T04:06:42.392Z,92.06
2018-03-07T04:09:08.233Z,92.12
2018-03-07T04:11:34.127Z,92.06
2018-03-07T04:14:00.016Z,91.83
2018-03-07T04:16:25.865Z,91.90
2018-03-07T04:18:51.704Z,91.83
2018-03-07T04:21:17.583Z,91.83
2018-03-07T04:23:43.436Z,91.88
2018-03-07T04:26:09.301Z,91.95
2018-03-07T04:28:35.179Z,91.90
2018-03-07T04:31:01.030Z,91.83
2018-03-07T04:33:26.902Z,91.88
2018-03-07T04:35:52.784Z,91.81
2018-03-07T04:38:18.629Z,91.82
2018-03-07T04:40:44.516Z,91.94
2018-03-07T04:43:10.378Z,91.95
2018-03-07T04:45:36.231Z,92.03
2018-03-07T04:48:02.091Z,92.03
2018-03-07T04:50:28.024Z,91.97
2018-03-07T04:52:53.872Z,91.99
2018-03-07T04:55:19.710Z,91.93
2018-03-07T04:57:45.589Z,91.78
2018-03-07T05:00:11.470Z,91.70
2018-03-07T05:02:37.357Z,91.77
2018-03-07T05:05:03.255Z,91.91
2018-03-07T05:07:29.105Z,92.05
2018-03-07T05:09:54.953Z,92.14
2018-03-07T05:12:20.902Z,92.19
2018-03-07T05:14:46.748Z,92.18
2018-03-07T05:17:12.587Z,92.18
2018-03-07T05:19:38.479Z,92.10
2018-03-07T05:22:04.319Z,92.10
2018-03-07T05:24:30.156Z,92.02
2018-03-07T05:26:56.046Z,91.95
2018-03-07T05:29:21.905Z,91.67
2018-03-07T05:31:47.752Z,91.44
2018-03-07T05:34:13.636Z,91.52
2018-03-07T05:36:39.522Z,91.58
2018-03-07T05:39:05.401Z,91.61
2018-03-07T05:41:31.280Z,91.62
2018-03-07T05:43:57.208Z,91.68
2018-03-07T05:46:23.062Z,91.79
2018-03-07T05:48:48.949Z,91.84
2018-03-07T05:51:14.857Z,91.75
2018-03-07T05:53:40.701Z,91.76
2018-03-07T05:56:06.589Z,91.84
2018-03-07T05:58:32.432Z,91.96
2018-03-07T06:00:58.272Z,91.97
2018-03-07T06:03:24.246Z,91.84
2018-03-07T06:05:50.089Z,91.83
2018-03-07T06:08:15.929Z,91.73
2018-03-07T06:10:41.947Z,91.65
2018-03-07T06:13:07.864Z,91.33
2018-03-07T06:15:33.714Z,91.27
2018-03-07T06:17:59.600Z,91.05
2018-03-07T06:20:25.463Z,90.86
2018-03-07T06:22:51.330Z,90.84
2018-03-07T06:25:17.287Z,90.85
2018-03-07T06:27:43.145Z,90.94
2018-03-07T06:30:09.005Z,90.98
2018-03-07T06:32:34.892Z,90.88
2018-03-07T06:35:00.761Z,90.89
2018-03-07T06:37:26.603Z,90.63
2018-03-07T06:39:52.493Z,90.28
2018-03-07T06:42:20.265Z,90.57
2018-03-07T06:44:46.120Z,90.36
2018-03-07T06:47:12.024Z,90.39
2018-03-07T06:49:37.877Z,90.50
2018-03-07T06:52:03.741Z,90.50
2018-03-07T06:54:29.624Z,90.24
2018-03-07T06:56:55.476Z,90.31
2018-03-07T06:59:21.333Z,90.17
2018-03-07T07:01:47.259Z,90.09
2018-03-07T07:04:13.092Z,89.78
2018-03-07T07:06:38.931Z,90.00
2018-03-07T07:09:04.840Z,90.06
2018-03-07T07:11:30.780Z,89.75
2018-03-07T07:13:56.681Z,89.76
2018-03-07T07:16:22.585Z,89.51
2018-03-07T07:18:48.446Z,89.34
2018-03-07T07:21:14.315Z,89.39
2018-03-07T07:23:40.193Z,89.41
2018-03-07T07:26:06.044Z,89.11
2018-03-07T07:28:31.888Z,89.15
2018-03-07T07:30:57.890Z,88.95
2018-03-07T07:33:23.781Z,88.99
2018-03-07T07:35:49.880Z,88.98
2018-03-07T07:38:15.777Z,89.16
2018-03-07T07:40:41.766Z,89.14
2018-03-07T07:43:07.762Z,89.13
2018-03-07T07:45:33.679Z,89.38
2018-03-07T07:47:59.553Z,89.91
2018-03-07T07:50:25.437Z,89.94
2018-03-07T07:52:51.332Z,89.69
2018-03-07T07:55:17.180Z,89.71
2018-03-07T07:57:43.113Z,89.27
2018-03-07T08:00:09.442Z,89.44
2018-03-07T08:02:35.328Z,88.65
2018-03-07T08:05:01.326Z,89.16
2018-03-07T08:07:27.221Z,89.04
2018-03-07T08:09:53.173Z,89.11
2018-03-07T08:12:19.501Z,88.52
2018-03-07T08:14:45.437Z,88.20
2018-03-07T08:17:11.280Z,87.45
2018-03-07T08:19:37.124Z,87.80
2018-03-07T08:22:03.021Z,87.54
2018-03-07T08:24:29.390Z,88.02
2018-03-07T08:26:55.272Z,88.13
2018-03-07T08:29:21.154Z,88.07
2018-03-07T08:31:46.996Z,87.64
2018-03-07T08:34:12.855Z,87.67
2018-03-07T08:36:39.168Z,87.46
2018-03-07T08:39:05.093Z,87.06
2018-03-07T08:41:30.995Z,86.96
2018-03-07T08:43:56.896Z,86.88
2018-03-07T08:46:22.741Z,86.83
2018-03-07T08:48:48.624Z,86.76
2018-03-07T08:51:14.517Z,86.19
2018-03-07T08:53:40.513Z,86.75
2018-03-07T08:56:06.411Z,86.72
2018-03-07T08:58:32.475Z,86.84
2018-03-07T09:00:58.390Z,86.41
2018-03-07T09:03:24.721Z,85.35
2018-03-07T09:05:50.856Z,85.79
2018-03-07T09:08:16.735Z,85.94
2018-03-07T09:10:42.640Z,85.11
2018-03-07T09:13:08.535Z,85.22
2018-03-07T09:15:34.434Z,85.70
2018-03-07T09:18:00.248Z,85.46
2018-03-07T09:20:26.137Z,86.26
2018-03-07T09:22:52.120Z,86.19
2018-03-07T09:25:17.959Z,85.84
2018-03-07T09:27:43.904Z,85.57
2018-03-07T09:30:09.998Z,85.21
2018-03-07T09:32:35.920Z,85.51
2018-03-07T09:35:01.955Z,85.63
2018-03-07T09:37:27.816Z,85.30
2018-03-07T09:39:53.669Z,85.00
2018-03-07T09:42:19.795Z,85.27
2018-03-07T09:44:45.692Z,85.10
2018-03-07T09:47:11.816Z,85.22
2018-03-07T09:49:37.736Z,84.94
2018-03-07T09:52:03.585Z,85.36
2018-03-07T09:54:29.512Z,84.85
2018-03-07T09:56:55.442Z,84.76
2018-03-07T09:59:21.773Z,84.29
2018-03-07T10:01:47.672Z,84.61
2018-03-07T10:04:13.556Z,84.26
2018-03-07T10:06:39.977Z,84.35
2018-03-07T10:09:05.842Z,84.19
2018-03-07T10:11:31.733Z,84.12
2018-03-07T10:13:57.706Z,84.54
2018-03-07T10:16:23.601Z,83.17
2018-03-07T10:18:49.520Z,83.73
2018-03-07T10:21:15.366Z,83.46
2018-03-07T10:23:41.207Z,83.06
2018-03-07T10:26:07.096Z,83.23
2018-03-07T10:28:32.942Z,83.32
2018-03-07T10:30:58.832Z,83.30
2018-03-07T10:33:26.514Z,83.49
2018-03-07T10:35:52.385Z,83.99
2018-03-07T10:38:18.616Z,83.25
2018-03-07T10:40:44.603Z,83.82
2018-03-07T10:43:10.500Z,83.82
2018-03-07T10:45:36.363Z,83.94
2018-03-07T10:48:02.264Z,83.95
2018-03-07T10:50:28.519Z,83.44
2018-03-07T10:52:54.459Z,83.23
2018-03-07T10:55:20.348Z,84.18
2018-03-07T10:57:46.543Z,84.11
2018-03-07T11:00:12.558Z,83.36
2018-03-07T11:02:38.544Z,83.22
2018-03-07T11:05:04.441Z,83.26
2018-03-07T11:07:30.297Z,82.90
2018-03-07T11:09:56.564Z,83.03
2018-03-07T11:12:22.427Z,82.67
2018-03-07T11:14:48.273Z,83.05
2018-03-07T11:17:14.175Z,83.38
2018-03-07T11:19:40.024Z,83.74
2018-03-07T11:22:06.296Z,83.57
2018-03-07T11:24:32.248Z,83.08
2018-03-07T11:26:58.092Z,82.46
2018-03-07T11:29:23.961Z,83.09
2018-03-07T11:31:49.852Z,82.97
2018-03-07T11:34:15.938Z,82.37
2018-03-07T11:36:41.803Z,82.25
2018-03-07T11:39:07.684Z,82.50
2018-03-07T11:41:33.540Z,83.28
2018-03-07T11:43:59.480Z,83.60
2018-03-07T11:46:25.405Z,83.68
2018-03-07T11:48:51.329Z,83.07
2018-03-07T11:51:17.182Z,82.84
2018-03-07T11:53:43.065Z,83.49
2018-03-07T11:56:08.976Z,83.37
2018-03-07T11:58:34.788Z,82.94
2018-03-07T12:01:00.686Z,82.99
2018-03-07T12:03:26.547Z,82.81
2018-03-07T12:05:52.448Z,83.06
2018-03-07T12:08:18.370Z,82.81
2018-03-07T12:10:44.216Z,82.84
2018-03-07T12:13:10.140Z,83.06
2018-03-07T12:15:36.020Z,83.44
2018-03-07T12:18:01.864Z,83.33
2018-03-07T12:20:27.729Z,83.55
2018-03-07T12:22:53.608Z,83.91
2018-03-07T12:25:20.054Z,83.70
2018-03-07T12:27:45.928Z,83.24
2018-03-07T12:30:11.812Z,83.25
2018-03-07T12:32:37.688Z,83.26
2018-03-07T12:35:03.645Z,83.24
2018-03-07T12:37:29.596Z,82.97
2018-03-07T12:39:55.463Z,83.81
2018-03-07T12:42:21.317Z,83.82
2018-03-07T12:44:47.611Z,84.59
2018-03-07T12:47:13.717Z,84.08
2018-03-07T12:49:39.580Z,84.62
2018-03-07T12:52:05.464Z,84.12
2018-03-07T12:54:31.409Z,84.20
2018-03-07T12:56:57.332Z,84.89
2018-03-07T12:59:23.231Z,84.82
2018-03-07T13:01:49.084Z,84.48
2018-03-07T13:04:14.948Z,84.56
2018-03-07T13:06:40.954Z,84.64
2018-03-07T13:09:07.042Z,84.91
2018-03-07T13:11:32.995Z,84.99
2018-03-07T13:13:58.912Z,85.12
2018-03-07T13:16:24.874Z,85.54
2018-03-07T13:18:50.825Z,85.33
2018-03-07T13:21:16.776Z,84.87
2018-03-07T13:23:42.620Z,84.52
2018-03-07T13:26:08.532Z,85.27
2018-03-07T13:28:34.432Z,85.24
2018-03-07T13:31:00.295Z,84.97
2018-03-07T13:33:26.148Z,85.11
2018-03-07T13:35:52.025Z,84.88
2018-03-07T13:38:17.968Z,85.37
2018-03-07T13:40:43.825Z,85.36
2018-03-07T13:43:09.773Z,85.58
2018-03-07T13:45:35.629Z,85.40
2018-03-07T13:48:01.470Z,85.59
2018-03-07T13:50:27.357Z,85.09
2018-03-07T13:52:53.280Z,85.17
2018-03-07T13:55:19.125Z,85.68
2018-03-07T13:57:45.025Z,85.50
2018-03-07T14:00:10.872Z,85.34
2018-03-07T14:02:36.813Z,85.28
2018-03-07T14:05:02.816Z,85.54
2018-03-07T14:07:28.701Z,85.59
2018-03-07T14:09:54.600Z,85.83
2018-03-07T14:12:20.511Z,85.75
2018-03-07T14:14:46.485Z,86.07
2018-03-07T14:17:12.387Z,86.32
2018-03-07T14:19:38.305Z,86.17
2018-03-07T14:22:04.173Z,85.91
2018-03-07T14:24:30.316Z,85.87
2018-03-07T14:26:56.250Z,85.90
2018-03-07T14:29:22.110Z,86.04
2018-03-07T14:31:47.969Z,86.14
2018-03-07T14:34:13.886Z,85.68
2018-03-07T14:36:39.880Z,85.97
2018-03-07T14:39:05.825Z,86.19
2018-03-07T14:41:31.742Z,86.02
2018-03-07T14:43:57.688Z,85.77
2018-03-07T14:46:23.562Z,85.89
2018-03-07T14:48:49.460Z,86.19
2018-03-07T14:51:15.511Z,86.49
2018-03-07T14:53:41.371Z,86.95
2018-03-07T14:56:07.248Z,86.88
2018-03-07T14:58:33.109Z,87.20
2018-03-07T15:00:59.047Z,87.45
2018-03-07T15:03:24.944Z,87.17
2018-03-07T15:05:50.827Z,87.36
2018-03-07T15:08:16.759Z,87.22
2018-03-07T15:10:43.071Z,87.19
2018-03-07T15:13:08.953Z,87.00
2018-03-07T15:15:34.803Z,86.63
2018-03-07T15:18:00.684Z,87.04
2018-03-07T15:20:26.540Z,86.93
2018-03-07T15:22:52.652Z,87.12
2018-03-07T15:25:18.581Z,87.50
2018-03-07T15:27:44.449Z,87.45
2018-03-07T15:30:10.321Z,87.56
2018-03-07T15:32:36.277Z,87.62
2018-03-07T15:35:02.137Z,87.38
2018-03-07T15:37:27.997Z,87.02
2018-03-07T15:39:53.999Z,87.26
2018-03-07T15:42:19.866Z,87.59
2018-03-07T15:44:45.920Z,87.92
2018-03-07T15:47:11.837Z,88.12
2018-03-07T15:49:37.770Z,87.67
2018-03-07T15:52:03.640Z,87.75
2018-03-07T15:54:29.677Z,87.94
2018-03-07T15:56:55.528Z,87.94
2018-03-07T15:59:21.527Z,88.07
2018-03-07T16:01:47.460Z,88.03
2018-03-07T16:04:13.315Z,87.91
2018-03-07T16:06:39.160Z,88.38
2018-03-07T16:09:05.087Z,88.33
2018-03-07T16:11:31.006Z,88.03
2018-03-07T16:13:56.852Z,88.17
2018-03-07T16:16:22.757Z,88.37
2018-03-07T16:18:48.610Z,88.48
2018-03-07T16:21:14.469Z,88.70
2018-03-07T16:23:40.366Z,88.84
2018-03-07T16:26:06.221Z,88.87
2018-03-07T16:28:32.072Z,88.89
2018-03-07T16:30:57.956Z,88.57
2018-03-07T16:33:23.841Z,88.72
2018-03-07T16:35:49.788Z,88.90
2018-03-07T16:38:15.700Z,89.04
2018-03-07T16:40:41.792Z,89.08
2018-03-07T16:43:07.650Z,89.17
2018-03-07T16:45:33.607Z,89.07
2018-03-07T16:47:59.457Z,88.77
2018-03-07T16:50:25.374Z,88.88
2018-03-07T16:52:51.279Z,88.63
2018-03-07T16:55:17.135Z,88.93
2018-03-07T16:57:43.089Z,88.84
2018-03-07T17:00:08.981Z,88.76
2018-03-07T17:02:34.839Z,88.83
2018-03-07T17:05:00.701Z,89.03
2018-03-07T17:07:27.660Z,89.16
2018-03-07T17:09:53.535Z,89.41
2018-03-07T17:12:19.460Z,89.62
2018-03-07T17:14:45.348Z,89.91
2018-03-07T17:17:11.232Z,89.65
2018-03-07T17:19:37.092Z,89.86
2018-03-07T17:22:03.021Z,89.76
2018-03-07T17:24:29.076Z,89.79
2018-03-07T17:26:54.952Z,89.94
2018-03-07T17:29:20.842Z,90.03
2018-03-07T17:31:46.715Z,89.85
2018-03-07T17:34:12.584Z,89.53
2018-03-07T17:36:38.528Z,89.66
2018-03-07T17:39:04.386Z,89.53
2018-03-07T17:41:30.238Z,89.76
2018-03-07T17:43:56.172Z,89.83
2018-03-07T17:46:22.030Z,89.78
2018-03-07T17:48:47.874Z,89.28
2018-03-07T17:51:13.790Z,89.49
2018-03-07T17:53:39.921Z,89.21
2018-03-07T17:56:05.943Z,89.37
2018-03-07T17:58:31.882Z,89.44
2018-03-07T18:00:57.752Z,89.28
2018-03-07T18:03:23.600Z,89.41
2018-03-07T18:05:49.484Z,89.20
2018-03-07T18:08:15.356Z,89.01
2018-03-07T18:10:41.248Z,88.86
2018-03-07T18:13:07.148Z,89.03
2018-03-07T18:15:33.005Z,89.32
2018-03-07T18:17:58.896Z,89.42
2018-03-07T18:20:24.812Z,89.62
2018-03-07T18:22:50.740Z,89.40
2018-03-07T18:25:16.648Z,89.40
2018-03-07T18:27:42.534Z,89.54
2018-03-07T18:30:08.392Z,89.33
2018-03-07T18:32:34.238Z,89.37
2018-03-07T18:35:00.256Z,89.22
2018-03-07T18:37:26.180Z,89.24
2018-03-07T18:39:52.024Z,89.41
2018-03-07T18:42:17.921Z,89.43
2018-03-07T18:44:43.773Z,89.53
2018-03-07T18:47:09.636Z,89.60
2018-03-07T18:49:35.536Z,89.89
2018-03-07T18:52:01.393Z,89.80
2018-03-07T18:54:27.327Z,89.68
2018-03-07T18:56:53.253Z,89.59
2018-03-07T18:59:19.099Z,89.74
2018-03-07T19:01:44.944Z,89.59
2018-03-07T19:04:11.805Z,89.80
2018-03-07T19:06:37.760Z,90.04
2018-03-07T19:09:03.672Z,89.70
2018-03-07T19:11:29.634Z,89.73
2018-03-07T19:13:55.476Z,89.75
2018-03-07T19:16:21.425Z,89.89
2018-03-07T19:18:47.368Z,89.82
2018-03-07T19:21:13.270Z,89.78
2018-03-07T19:23:39.407Z,89.89
2018-03-07T19:26:05.355Z,89.74
2018-03-07T19:28:31.216Z,89.77
2018-03-07T19:30:57.060Z,89.86
2018-03-07T19:33:23.013Z,89.40
2018-03-07T19:35:48.869Z,89.48
2018-03-07T19:38:14.811Z,89.68
2018-03-07T19:40:40.750Z,89.90
2018-03-07T19:43:06.592Z,89.50
2018-03-07T19:45:32.449Z,89.50
2018-03-07T19:47:58.340Z,89.68
2018-03-07T19:50:24.204Z,89.39
2018-03-07T19:52:50.134Z,89.47
2018-03-07T19:55:16.050Z,89.44
2018-03-07T19:57:42.002Z,89.50
2018-03-07T20:00:08.785Z,89.41
2018-03-07T20:02:34.692Z,89.27
2018-03-07T20:05:00.544Z,89.37
2018-03-07T20:07:26.393Z,89.02
2018-03-07T20:09:52.276Z,88.71
2018-03-07T20:12:18.170Z,88.94
2018-03-07T20:14:44.033Z,88.57
2018-03-07T20:17:09.916Z,88.41
2018-03-07T20:19:35.768Z,88.60
2018-03-07T20:22:01.604Z,88.91
2018-03-07T20:24:27.512Z,89.03
2018-03-07T20:26:53.376Z,89.22
2018-03-07T20:29:19.224Z,89.38
2018-03-07T20:31:45.108Z,89.25
2018-03-07T20:34:10.968Z,89.39
2018-03-07T20:36:36.816Z,89.48
2018-03-07T20:39:02.817Z,89.67
2018-03-07T20:41:28.683Z,89.61
2018-03-07T20:43:54.533Z,89.30
2018-03-07T20:46:20.415Z,89.24
2018-03-07T20:48:46.260Z,89.45
2018-03-07T20:51:12.114Z,89.13
2018-03-07T20:53:38.005Z,89.32
2018-03-07T20:56:03.864Z,89.23
2018-03-07T20:58:29.737Z,88.84
2018-03-07T21:00:55.634Z,89.10
2018-03-07T21:03:21.569Z,89.03
2018-03-07T21:05:47.421Z,88.99
2018-03-07T21:08:13.305Z,89.20
2018-03-07T21:10:39.304Z,89.49
2018-03-07T21:13:05.180Z,89.61
2018-03-07T21:15:31.171Z,89.77
2018-03-07T21:17:57.035Z,89.65
2018-03-07T21:20:22.885Z,89.76
2018-03-07T21:22:48.939Z,89.94
2018-03-07T21:25:14.797Z,89.90
2018-03-07T21:27:40.652Z,90.07
2018-03-07T21:30:06.528Z,90.08
2018-03-07T21:32:32.372Z,90.00
2018-03-07T21:34:58.216Z,90.15
2018-03-07T21:37:24.117Z,90.25
2018-03-07T21:39:49.997Z,90.36
2018-03-07T21:42:15.853Z,90.38
2018-03-07T21:44:41.742Z,90.46
2018-03-07T21:47:07.609Z,90.44
2018-03-07T21:49:33.477Z,90.43
2018-03-07T21:51:59.358Z,90.27
2018-03-07T21:54:25.212Z,90.16
2018-03-07T21:56:51.076Z,90.23
2018-03-07T21:59:16.970Z,90.20
2018-03-07T22:01:42.836Z,90.20
2018-03-07T22:04:08.781Z,90.14
2018-03-07T22:06:34.671Z,90.27
2018-03-07T22:09:00.555Z,90.45
2018-03-07T22:11:26.517Z,90.52
2018-03-07T22:13:52.502Z,90.61
2018-03-07T22:16:18.364Z,90.59
2018-03-07T22:18:44.208Z,90.37
2018-03-07T22:21:10.105Z,90.49
2018-03-07T22:23:36.020Z,90.55
2018-03-07T22:26:01.875Z,90.63
2018-03-07T22:28:27.833Z,90.55
2018-03-07T22:30:53.680Z,90.49
2018-03-07T22:33:19.625Z,90.44
2018-03-07T22:35:45.521Z,90.46
2018-03-07T22:38:11.435Z,90.29
2018-03-07T22:40:37.284Z,90.20
2018-03-07T22:43:03.190Z,90.24
2018-03-07T22:45:29.098Z,90.28
2018-03-07T22:47:55.057Z,90.43
2018-03-07T22:50:20.940Z,90.39
2018-03-07T22:52:46.792Z,90.52
2018-03-07T22:55:12.662Z,90.75
2018-03-07T22:57:38.544Z,90.97
2018-03-07T23:00:04.471Z,91.04
2018-03-07T23:02:30.318Z,91.11
2018-03-07T23:04:56.268Z,91.20
2018-03-07T23:07:22.080Z,91.32
2018-03-07T23:09:47.944Z,91.38
2018-03-07T23:12:13.846Z,91.39
2018-03-07T23:14:39.951Z,91.49
2018-03-07T23:17:05.844Z,91.58
2018-03-07T23:19:32.201Z,91.54
2018-03-07T23:21:58.132Z,91.23
2018-03-07T23:24:24.031Z,90.78
2018-03-07T23:26:50.087Z,90.91
2018-03-07T23:29:16.191Z,90.63
2018-03-07T23:31:42.537Z,90.75
2018-03-07T23:34:08.665Z,90.65
2018-03-07T23:36:34.885Z,90.30
2018-03-07T23:39:00.834Z,90.53
2018-03-07T23:41:26.805Z,90.55
2018-03-07T23:43:52.732Z,90.73
2018-03-07T23:46:18.789Z,90.79
2018-03-07T23:48:45.171Z,90.59
2018-03-07T23:51:11.374Z,90.31
2018-03-07T23:53:37.561Z,90.37
2018-03-07T23:56:03.605Z,90.42
2018-03-07T23:58:29.463Z,90.60
